Time;durP1;ratioP1;P1;durP2;ratioP2;P2;SDS_P1;SDS_P2;PMS_P1;PMS_P2;Temp;Humidity;BMP_temperature;BMP_pressure;BME280_temperature;BME280_humidity;BME280_pressure;Samples;Min_cycle;Max_cycle;Signal;HPM_P1;HPM_P2
2022/05/29 00:01:17;;;;;;;;;4.67;3.00;;;;;;;;5077946;28;45360;-78
2022/05/29 00:03:43;;;;;;;;;3.33;3.33;;;;;;;;5078085;28;45317;-77
2022/05/29 00:06:08;;;;;;;;;5.00;4.00;;;;;;;;5078187;28;45344;-78
2022/05/29 00:08:35;;;;;;;;;2.33;2.33;;;;;;;;5077742;28;46661;-77
2022/05/29 00:11:01;;;;;;;;;3.00;3.00;;;;;;;;5077987;28;45322;-77
2022/05/29 00:13:27;;;;;;;;;3.67;3.00;;;;;;;;5078242;28;45348;-77
2022/05/29 00:15:52;;;;;;;;;5.33;4.00;;;;;;;;5078179;28;45340;-76
2022/05/29 00:18:17;;;;;;;;;4.00;4.00;;;;;;;;5077750;28;45301;-77
2022/05/29 00:20:44;;;;;;;;;3.00;3.00;;;;;;;;5077993;28;45435;-76
2022/05/29 00:23:09;;;;;;;;;4.67;4.00;;;;;;;;5077743;28;45374;-78
2022/05/29 00:25:35;;;;;;;;;5.00;3.67;;;;;;;;5078152;28;45340;-77
2022/05/29 00:28:00;;;;;;;;;2.00;2.00;;;;;;;;5077406;28;46443;-77
2022/05/29 00:30:25;;;;;;;;;3.00;3.00;;;;;;;;5076331;28;45419;-77
2022/05/29 00:32:50;;;;;;;;;0.67;0.00;;;;;;;;5077857;28;45509;-78
2022/05/29 00:35:16;;;;;;;;;5.00;5.00;;;;;;;;5077838;28;45386;-78
2022/05/29 00:37:41;;;;;;;;;6.00;3.67;;;;;;;;5077444;28;45644;-77
2022/05/29 00:40:14;;;;;;;;;8.67;2.00;;;;;;;;5077656;28;45308;-77
2022/05/29 00:42:39;;;;;;;;;2.33;2.33;;;;;;;;5077501;28;45316;-77
2022/05/29 00:45:09;;;;;;;;;3.67;3.67;;;;;;;;5077693;28;45523;-76
2022/05/29 00:47:34;;;;;;;;;5.00;3.33;;;;;;;;5077246;28;47073;-77
2022/05/29 00:49:59;;;;;;;;;2.67;2.00;;;;;;;;5077667;28;45512;-77
2022/05/29 00:52:28;;;;;;;;;4.67;4.00;;;;;;;;5077638;28;45327;-77
2022/05/29 00:54:58;;;;;;;;;4.00;3.67;;;;;;;;5077400;28;45466;-77
2022/05/29 00:57:33;;;;;;;;;6.00;3.00;;;;;;;;5077597;28;46279;-78
2022/05/29 01:00:10;;;;;;;;;3.00;3.00;;;;;;;;5077313;28;45332;-77
2022/05/29 01:02:35;;;;;;;;;9.67;9.00;;;;;;;;5077327;28;45513;-76
2022/05/29 01:05:03;;;;;;;;;4.00;3.00;;;;;;;;5077412;28;45379;-76
2022/05/29 01:07:29;;;;;;;;;4.67;3.00;;;;;;;;5077385;28;45450;-76
2022/05/29 01:09:54;;;;;;;;;8.33;3.00;;;;;;;;5076971;28;45423;-76
2022/05/29 01:12:30;;;;;;;;;3.67;3.00;;;;;;;;5077314;28;45352;-76
2022/05/29 01:14:55;;;;;;;;;5.33;4.00;;;;;;;;5077439;28;45174;-75
2022/05/29 01:17:32;;;;;;;;;3.67;3.00;;;;;;;;5076880;28;46394;-77
2022/05/29 01:20:07;;;;;;;;;3.00;3.00;;;;;;;;5076745;28;45257;-76
2022/05/29 01:22:48;;;;;;;;;3.00;3.00;;;;;;;;5077110;28;45353;-75
2022/05/29 01:25:32;;;;;;;;;3.00;3.00;;;;;;;;5077269;28;45214;-76
2022/05/29 01:28:03;;;;;;;;;2.33;2.33;;;;;;;;5076963;28;46951;-77
2022/05/29 01:30:31;;;;;;;;;3.33;3.33;;;;;;;;5076897;28;45364;-76
2022/05/29 01:33:15;;;;;;;;;2.67;2.67;;;;;;;;5076859;28;45254;-77
2022/05/29 01:35:45;;;;;;;;;2.67;2.67;;;;;;;;5077317;28;45179;-78
2022/05/29 01:38:21;;;;;;;;;6.00;3.00;;;;;;;;5076492;28;45494;-78
2022/05/29 01:40:48;;;;;;;;;3.33;2.00;;;;;;;;5077577;28;45304;-77
2022/05/29 01:43:32;;;;;;;;;2.00;2.00;;;;;;;;5080553;28;45403;-76
2022/05/29 01:46:07;;;;;;;;;4.33;2.00;;;;;;;;5080720;28;45356;-77
2022/05/29 01:48:38;;;;;;;;;2.00;2.00;;;;;;;;5061474;28;46639;-76
2022/05/29 01:51:18;;;;;;;;;1.33;1.33;;;;;;;;5080320;28;45442;-77
2022/05/29 01:54:04;;;;;;;;;3.00;1.67;;;;;;;;5080144;28;45226;-77
2022/05/29 01:56:41;;;;;;;;;4.00;3.00;;;;;;;;5079927;28;45364;-77
2022/05/29 01:59:14;;;;;;;;;3.00;3.00;;;;;;;;5079944;28;46580;-77
2022/05/29 02:01:44;;;;;;;;;3.00;1.67;;;;;;;;5079877;28;45426;-77
2022/05/29 02:04:13;;;;;;;;;2.00;2.00;;;;;;;;5079797;28;45330;-77
2022/05/29 02:09:27;;;;;;;;;1.33;1.33;;;;;;;;5079487;28;45394;-76
2022/05/29 02:11:54;;;;;;;;;2.00;2.00;;;;;;;;5079940;28;45393;-77
2022/05/29 02:14:36;;;;;;;;;2.00;2.00;;;;;;;;5083717;27;45454;-78
2022/05/29 02:17:05;;;;;;;;;2.00;2.00;;;;;;;;5079535;27;45432;-76
2022/05/29 02:19:33;;;;;;;;;2.33;2.33;;;;;;;;5078915;28;46401;-76
2022/05/29 02:22:01;;;;;;;;;2.00;2.00;;;;;;;;5078845;28;45419;-76
2022/05/29 02:24:29;;;;;;;;;4.67;1.67;;;;;;;;5060843;28;45386;-76
2022/05/29 02:27:07;;;;;;;;;5.00;2.00;;;;;;;;5095952;27;45406;-76
2022/05/29 02:29:33;;;;;;;;;2.33;1.33;;;;;;;;5099434;27;45682;-76
2022/05/29 02:32:07;;;;;;;;;1.00;1.00;;;;;;;;5099395;27;45302;-75
2022/05/29 02:34:41;;;;;;;;;4.00;1.00;;;;;;;;5087554;27;45423;-76
2022/05/29 02:37:12;;;;;;;;;1.67;1.00;;;;;;;;5097322;27;45363;-75
2022/05/29 02:39:46;;;;;;;;;1.00;1.00;;;;;;;;5098681;27;45593;-75
2022/05/29 02:42:14;;;;;;;;;2.00;2.00;;;;;;;;5099151;27;45419;-75
2022/05/29 02:44:45;;;;;;;;;3.00;1.33;;;;;;;;5085587;27;45531;-76
2022/05/29 02:47:13;;;;;;;;;4.33;1.00;;;;;;;;5078969;28;45459;-75
2022/05/29 02:49:43;;;;;;;;;1.00;1.00;;;;;;;;5078501;27;45660;-75
2022/05/29 02:52:14;;;;;;;;;2.00;1.00;;;;;;;;5082585;27;45360;-75
2022/05/29 02:54:39;;;;;;;;;2.00;1.00;;;;;;;;5063910;27;45392;-75
2022/05/29 02:57:04;;;;;;;;;6.67;2.00;;;;;;;;5098666;27;45419;-75
2022/05/29 02:59:36;;;;;;;;;1.00;1.00;;;;;;;;5082013;27;45907;-74
2022/05/29 03:02:20;;;;;;;;;3.00;1.00;;;;;;;;5080593;27;45478;-75
2022/05/29 03:04:51;;;;;;;;;3.00;1.00;;;;;;;;5078540;28;45496;-75
2022/05/29 03:07:35;;;;;;;;;3.00;1.33;;;;;;;;5078935;28;45371;-75
2022/05/29 03:10:09;;;;;;;;;1.00;1.00;;;;;;;;5078271;28;46612;-74
2022/05/29 03:12:37;;;;;;;;;2.00;1.00;;;;;;;;5078520;28;45438;-75
2022/05/29 03:15:05;;;;;;;;;1.33;1.33;;;;;;;;5078437;28;45392;-75
2022/05/29 03:17:51;;;;;;;;;1.67;1.67;;;;;;;;5078756;28;45439;-75
2022/05/29 03:20:19;;;;;;;;;2.67;1.00;;;;;;;;5078256;28;46515;-74
2022/05/29 03:22:51;;;;;;;;;1.00;1.00;;;;;;;;5078046;28;45398;-74
2022/05/29 03:25:27;;;;;;;;;4.00;2.67;;;;;;;;5078054;28;45289;-75
2022/05/29 03:27:55;;;;;;;;;2.67;0.00;;;;;;;;5078351;28;45621;-75
2022/05/29 03:30:26;;;;;;;;;4.00;2.33;;;;;;;;5077946;28;45479;-76
2022/05/29 03:32:56;;;;;;;;;1.33;1.33;;;;;;;;5077917;28;45512;-75
2022/05/29 03:35:29;;;;;;;;;3.00;3.00;;;;;;;;5078049;28;45558;-76
2022/05/29 03:37:55;;;;;;;;;0.67;0.33;;;;;;;;5078403;28;45370;-76
2022/05/29 03:40:20;;;;;;;;;3.33;3.00;;;;;;;;5077689;28;46472;-75
2022/05/29 03:42:46;;;;;;;;;3.00;3.00;;;;;;;;5077716;28;45355;-76
2022/05/29 03:45:12;;;;;;;;;3.00;3.00;;;;;;;;5077991;28;45359;-77
2022/05/29 03:47:37;;;;;;;;;4.67;3.33;;;;;;;;5078094;28;45431;-76
2022/05/29 03:50:04;;;;;;;;;4.33;2.00;;;;;;;;5077763;28;46916;-73
2022/05/29 03:52:31;;;;;;;;;1.00;1.00;;;;;;;;5077771;28;45443;-76
2022/05/29 03:54:56;;;;;;;;;3.00;3.00;;;;;;;;5077347;28;45530;-76
2022/05/29 03:57:22;;;;;;;;;4.00;2.00;;;;;;;;5078077;28;45443;-75
2022/05/29 03:59:47;;;;;;;;;5.33;3.00;;;;;;;;5077558;28;45757;-75
2022/05/29 04:02:12;;;;;;;;;3.00;3.00;;;;;;;;5077698;28;45539;-77
2022/05/29 04:04:37;;;;;;;;;7.33;5.00;;;;;;;;5059002;28;45269;-76
2022/05/29 04:07:03;;;;;;;;;7.00;5.33;;;;;;;;5078100;28;45455;-76
2022/05/29 04:12:13;;;;;;;;;5.67;5.00;;;;;;;;5077726;28;45285;-75
2022/05/29 04:14:40;;;;;;;;;4.33;4.33;;;;;;;;5078157;28;45408;-75
2022/05/29 04:17:06;;;;;;;;;9.33;8.67;;;;;;;;5078256;28;45442;-75
2022/05/29 04:19:31;;;;;;;;;9.67;6.00;;;;;;;;5077640;28;46441;-75
2022/05/29 04:21:57;;;;;;;;;4.00;4.00;;;;;;;;5077767;28;45344;-74
2022/05/29 04:24:22;;;;;;;;;5.67;5.33;;;;;;;;5078111;28;45427;-75
2022/05/29 04:26:48;;;;;;;;;5.33;4.33;;;;;;;;5077916;28;45688;-74
2022/05/29 04:29:13;;;;;;;;;6.33;5.33;;;;;;;;5077917;28;45391;-75
2022/05/29 04:32:59;;;;;;;;;7.33;7.33;;;;;;;;5077687;28;45474;-75
2022/05/29 04:34:24;;;;;;;;;6.33;5.00;;;;;;;;5077628;28;45310;-75
2022/05/29 04:36:49;;;;;;;;;11.00;8.00;;;;;;;;5077900;28;45296;-75
2022/05/29 04:39:14;;;;;;;;;93.00;87.75;;;;;;;;5077354;28;45535;-75
2022/05/29 04:41:39;;;;;;;;;4.00;3.00;;;;;;;;5077373;28;45431;-75
2022/05/29 04:44:05;;;;;;;;;11.33;5.00;;;;;;;;5059237;28;45351;-75
2022/05/29 04:46:30;;;;;;;;;10.00;7.00;;;;;;;;5077646;28;45343;-75
2022/05/29 04:48:55;;;;;;;;;6.67;5.00;;;;;;;;5077392;28;46661;-75
2022/05/29 04:51:20;;;;;;;;;7.33;5.00;;;;;;;;5077311;28;45310;-75
2022/05/29 04:53:45;;;;;;;;;3.67;3.67;;;;;;;;5077507;28;45356;-75
2022/05/29 04:56:11;;;;;;;;;5.67;5.00;;;;;;;;5077201;28;45292;-75
2022/05/29 04:58:36;;;;;;;;;3.67;3.00;;;;;;;;5077323;28;45495;-75
2022/05/29 05:01:02;;;;;;;;;8.00;5.67;;;;;;;;5077227;28;45250;-75
2022/05/29 05:03:29;;;;;;;;;3.33;3.00;;;;;;;;5077313;28;45532;-75
2022/05/29 05:05:54;;;;;;;;;9.33;5.67;;;;;;;;5058886;28;45505;-75
2022/05/29 05:08:20;;;;;;;;;5.00;3.67;;;;;;;;5077213;28;46399;-75
2022/05/29 05:10:45;;;;;;;;;24.67;24.00;;;;;;;;5077099;28;45356;-74
2022/05/29 05:13:10;;;;;;;;;4.00;4.00;;;;;;;;5077345;28;45366;-75
2022/05/29 05:15:36;;;;;;;;;5.00;4.00;;;;;;;;5077814;28;45280;-75
2022/05/29 05:18:01;;;;;;;;;3.00;3.00;;;;;;;;5080891;28;45539;-75
2022/05/29 05:20:26;;;;;;;;;2.00;2.00;;;;;;;;5080794;28;45767;-76
2022/05/29 05:22:52;;;;;;;;;6.00;3.00;;;;;;;;5080627;28;45284;-76
2022/05/29 05:25:17;;;;;;;;;5.67;3.00;;;;;;;;5081043;28;45315;-76
2022/05/29 05:27:43;;;;;;;;;3.00;2.00;;;;;;;;5080346;28;47380;-76
2022/05/29 05:30:08;;;;;;;;;2.00;2.00;;;;;;;;5080351;28;45477;-77
2022/05/29 05:32:34;;;;;;;;;4.33;2.00;;;;;;;;5080434;28;45409;-75
2022/05/29 05:35:03;;;;;;;;;3.00;2.00;;;;;;;;5080722;28;45431;-76
2022/05/29 05:37:29;;;;;;;;;3.00;3.00;;;;;;;;5080373;28;46623;-76
2022/05/29 05:39:54;;;;;;;;;7.67;7.67;;;;;;;;5080179;28;45166;-76
2022/05/29 05:42:19;;;;;;;;;3.67;2.00;;;;;;;;5080131;28;45379;-76
2022/05/29 05:44:44;;;;;;;;;4.00;2.67;;;;;;;;5080787;28;45202;-76
2022/05/29 05:47:10;;;;;;;;;3.00;3.00;;;;;;;;5079938;28;45508;-76
2022/05/29 05:49:36;;;;;;;;;2.00;2.00;;;;;;;;5080567;28;45350;-76
2022/05/29 05:52:02;;;;;;;;;1.33;1.33;;;;;;;;5080289;28;45217;-76
2022/05/29 05:54:31;;;;;;;;;2.00;2.00;;;;;;;;5080567;28;45421;-76
2022/05/29 05:56:57;;;;;;;;;2.00;2.00;;;;;;;;5080081;28;46584;-77
2022/05/29 05:59:22;;;;;;;;;5.33;3.00;;;;;;;;5080028;28;45520;-76
2022/05/29 06:01:47;;;;;;;;;3.00;2.00;;;;;;;;5080203;28;45374;-76
2022/05/29 06:04:12;;;;;;;;;4.00;1.67;;;;;;;;5080294;28;45368;-77
2022/05/29 06:06:38;;;;;;;;;3.00;2.67;;;;;;;;5079721;28;45389;-76
2022/05/29 06:09:03;;;;;;;;;2.00;2.00;;;;;;;;5079904;28;45389;-74
2022/05/29 06:11:29;;;;;;;;;2.00;2.00;;;;;;;;5080074;28;45356;-76
2022/05/29 06:13:54;;;;;;;;;5.00;2.33;;;;;;;;5080365;28;45362;-76
2022/05/29 06:16:20;;;;;;;;;2.00;2.00;;;;;;;;5079829;28;45671;-74
2022/05/29 06:18:45;;;;;;;;;4.00;2.67;;;;;;;;5079882;28;45323;-75
2022/05/29 06:21:10;;;;;;;;;3.33;3.00;;;;;;;;5079940;28;45661;-75
2022/05/29 06:23:38;;;;;;;;;2.00;2.00;;;;;;;;5079841;28;45342;-75
2022/05/29 06:26:04;;;;;;;;;4.67;3.67;;;;;;;;5079840;28;45413;-75
2022/05/29 06:28:30;;;;;;;;;2.00;2.00;;;;;;;;5079332;28;45452;-75
2022/05/29 06:30:55;;;;;;;;;2.00;2.00;;;;;;;;5079508;28;45331;-75
2022/05/29 06:33:20;;;;;;;;;4.00;2.67;;;;;;;;5079921;28;45291;-76
2022/05/29 06:35:45;;;;;;;;;4.67;3.00;;;;;;;;5079515;28;46442;-74
2022/05/29 06:38:11;;;;;;;;;3.00;3.00;;;;;;;;5079732;28;45363;-75
2022/05/29 06:40:37;;;;;;;;;4.33;3.00;;;;;;;;5079604;28;45329;-74
2022/05/29 06:43:02;;;;;;;;;4.00;3.00;;;;;;;;5079384;28;45773;-75
2022/05/29 06:45:27;;;;;;;;;4.67;3.00;;;;;;;;5079949;28;46483;-75
2022/05/29 06:47:52;;;;;;;;;7.00;4.00;;;;;;;;5079352;28;45406;-76
2022/05/29 06:50:18;;;;;;;;;5.00;3.00;;;;;;;;5079450;28;45190;-76
2022/05/29 06:52:43;;;;;;;;;3.67;3.67;;;;;;;;5079617;28;45367;-76
2022/05/29 06:55:09;;;;;;;;;3.00;3.00;;;;;;;;5078993;28;46576;-76
2022/05/29 06:57:37;;;;;;;;;3.00;3.00;;;;;;;;5078953;28;45566;-75
2022/05/29 07:08:20;;;;;;;;;4.00;2.00;;;;;;;;5078816;28;45362;-77
2022/05/29 07:10:45;;;;;;;;;3.33;1.67;;;;;;;;5079179;28;45296;-76
2022/05/29 07:13:11;;;;;;;;;3.00;3.00;;;;;;;;5060886;28;45442;-76
2022/05/29 07:15:37;;;;;;;;;1.67;1.67;;;;;;;;5079109;28;46663;-76
2022/05/29 07:18:03;;;;;;;;;5.00;1.67;;;;;;;;5078885;28;45674;-75
2022/05/29 07:20:29;;;;;;;;;7.00;2.00;;;;;;;;5078542;28;45379;-75
2022/05/29 07:22:54;;;;;;;;;14.67;11.67;;;;;;;;5060606;28;45635;-76
2022/05/29 07:25:19;;;;;;;;;4.33;4.00;;;;;;;;5078538;28;45597;-76
2022/05/29 07:27:45;;;;;;;;;2.33;2.00;;;;;;;;5060369;28;45436;-76
2022/05/29 07:30:10;;;;;;;;;3.00;3.00;;;;;;;;5078701;28;45244;-76
2022/05/29 07:32:36;;;;;;;;;2.67;1.00;;;;;;;;5076794;28;45519;-77
2022/05/29 07:35:01;;;;;;;;;5.00;2.00;;;;;;;;5081092;27;45298;-76
2022/05/29 07:37:26;;;;;;;;;7.00;4.00;;;;;;;;5098633;27;45270;-78
2022/05/29 07:39:52;;;;;;;;;3.00;3.00;;;;;;;;5097793;27;45435;-77
2022/05/29 07:45:05;;;;;;;;;3.00;1.33;;;;;;;;5078815;27;45836;-77
2022/05/29 07:47:35;;;;;;;;;1.67;1.67;;;;;;;;5098564;27;45380;-75
2022/05/29 07:50:00;;;;;;;;;4.00;2.67;;;;;;;;5098679;27;45343;-76
2022/05/29 07:52:25;;;;;;;;;3.67;2.00;;;;;;;;5098882;27;45263;-77
2022/05/29 07:54:52;;;;;;;;;3.67;2.00;;;;;;;;5096092;27;46501;-75
2022/05/29 07:57:17;;;;;;;;;5.00;2.00;;;;;;;;5078170;28;45352;-76
2022/05/29 07:59:43;;;;;;;;;1.67;0.67;;;;;;;;5077725;28;45380;-77
2022/05/29 08:02:08;;;;;;;;;1.00;1.00;;;;;;;;5078537;28;45463;-75
2022/05/29 08:04:33;;;;;;;;;2.00;2.00;;;;;;;;5077737;28;45300;-74
2022/05/29 08:06:58;;;;;;;;;3.67;2.67;;;;;;;;5077957;28;45359;-76
2022/05/29 08:09:24;;;;;;;;;3.33;1.67;;;;;;;;5064610;28;45434;-76
2022/05/29 08:11:49;;;;;;;;;3.00;1.00;;;;;;;;5057656;28;45379;-77
2022/05/29 08:14:15;;;;;;;;;0.00;0.00;;;;;;;;5056962;28;46196;-77
2022/05/29 08:16:41;;;;;;;;;4.00;1.00;;;;;;;;5056230;28;45427;-75
2022/05/29 08:19:07;;;;;;;;;2.00;2.00;;;;;;;;5057923;28;45346;-76
2022/05/29 08:21:32;;;;;;;;;27.33;24.00;;;;;;;;5057384;28;45607;-75
2022/05/29 08:32:09;;;;;;;;;2.00;1.00;;;;;;;;5061114;28;45595;-75
2022/05/29 08:34:34;;;;;;;;;0.67;0.33;;;;;;;;5056647;28;46562;-76
2022/05/29 08:36:59;;;;;;;;;1.00;1.00;;;;;;;;5067877;28;46782;-76
2022/05/29 08:39:25;;;;;;;;;3.00;1.00;;;;;;;;5068039;28;45436;-77
2022/05/29 08:41:52;;;;;;;;;1.00;1.00;;;;;;;;5072696;28;45313;-76
2022/05/29 08:44:17;;;;;;;;;2.33;1.00;;;;;;;;5075379;28;45721;-77
2022/05/29 08:46:45;;;;;;;;;0.00;0.00;;;;;;;;5077101;28;45317;-76
2022/05/29 08:49:18;;;;;;;;;3.33;2.00;;;;;;;;5062514;28;45506;-78
2022/05/29 08:52:00;;;;;;;;;1.33;1.00;;;;;;;;5060571;28;45519;-76
2022/05/29 08:54:37;;;;;;;;;1.00;1.00;;;;;;;;5069790;28;46734;-76
2022/05/29 08:57:14;;;;;;;;;0.67;0.67;;;;;;;;5094200;27;45453;-74
2022/05/29 08:59:59;;;;;;;;;4.00;2.00;;;;;;;;5080898;28;45481;-75
2022/05/29 09:02:43;;;;;;;;;1.00;1.00;;;;;;;;5082027;27;45466;-77
2022/05/29 09:05:11;;;;;;;;;1.00;1.00;;;;;;;;5076618;27;45549;-77
2022/05/29 09:07:39;;;;;;;;;1.33;0.33;;;;;;;;5081639;27;45488;-78
2022/05/29 09:10:13;;;;;;;;;1.00;1.00;;;;;;;;5078720;27;45546;-77
2022/05/29 09:12:45;;;;;;;;;1.00;1.00;;;;;;;;5087367;27;45319;-78
2022/05/29 09:15:16;;;;;;;;;1.00;1.00;;;;;;;;5094989;27;45578;-78
2022/05/29 09:17:51;;;;;;;;;1.00;1.00;;;;;;;;5101173;27;45315;-79
2022/05/29 09:20:28;;;;;;;;;1.00;1.00;;;;;;;;5101366;27;45335;-75
2022/05/29 09:22:55;;;;;;;;;3.00;1.00;;;;;;;;5101208;27;45431;-81
2022/05/29 09:25:20;;;;;;;;;2.00;2.00;;;;;;;;5101189;27;46687;-79
2022/05/29 09:27:47;;;;;;;;;2.33;2.33;;;;;;;;5100986;27;45228;-81
2022/05/29 09:30:13;;;;;;;;;0.00;0.00;;;;;;;;5101036;27;45303;-80
2022/05/29 09:32:43;;;;;;;;;0.00;0.00;;;;;;;;5101590;27;45357;-80
2022/05/29 09:35:08;;;;;;;;;2.00;0.00;;;;;;;;5100721;27;46532;-77
2022/05/29 09:37:59;;;;;;;;;0.33;0.00;;;;;;;;5101056;27;45387;-76
2022/05/29 09:40:29;;;;;;;;;2.00;0.33;;;;;;;;5096977;27;45576;-76
2022/05/29 09:42:55;;;;;;;;;0.00;0.00;;;;;;;;5101015;27;45526;-75
2022/05/29 09:45:20;;;;;;;;;0.00;0.00;;;;;;;;5100428;27;45282;-76
2022/05/29 09:50:42;;;;;;;;;0.33;0.33;;;;;;;;5100902;27;45345;-78
2022/05/29 09:53:23;;;;;;;;;2.00;2.00;;;;;;;;5101113;27;45349;-78
2022/05/29 09:55:50;;;;;;;;;0.00;0.00;;;;;;;;5100098;27;46566;-77
2022/05/29 09:58:20;;;;;;;;;2.33;0.33;;;;;;;;5100388;27;45413;-77
2022/05/29 10:00:53;;;;;;;;;1.00;0.00;;;;;;;;5100718;27;45482;-78
2022/05/29 10:03:49;;;;;;;;;0.00;0.00;;;;;;;;5100080;27;45392;-78
2022/05/29 10:06:22;;;;;;;;;1.00;1.00;;;;;;;;5017362;28;46538;-76
2022/05/29 10:08:49;;;;;;;;;3.00;1.67;;;;;;;;5017486;28;45461;-78
2022/05/29 10:11:31;;;;;;;;;2.00;2.00;;;;;;;;5017683;28;45468;-78
2022/05/29 10:13:56;;;;;;;;;1.00;1.00;;;;;;;;5017590;28;45231;-77
2022/05/29 10:16:33;;;;;;;;;3.00;3.00;;;;;;;;5017038;28;46162;-76
2022/05/29 10:18:58;;;;;;;;;1.67;1.33;;;;;;;;5017030;28;45374;-75
2022/05/29 10:21:27;;;;;;;;;1.00;1.00;;;;;;;;5017586;28;45433;-77
2022/05/29 10:24:09;;;;;;;;;1.67;0.67;;;;;;;;5017370;28;45603;-77
2022/05/29 10:26:36;;;;;;;;;3.00;2.00;;;;;;;;5016943;28;45371;-76
2022/05/29 10:29:10;;;;;;;;;1.00;1.00;;;;;;;;5016964;28;45317;-76
2022/05/29 10:31:38;;;;;;;;;1.67;1.67;;;;;;;;5017298;28;45485;-78
2022/05/29 10:34:08;;;;;;;;;2.33;2.33;;;;;;;;5017271;28;45590;-77
2022/05/29 10:36:34;;;;;;;;;1.00;1.00;;;;;;;;5016723;28;46156;-77
2022/05/29 10:39:05;;;;;;;;;1.00;1.00;;;;;;;;5015901;28;45474;-75
2022/05/29 10:41:31;;;;;;;;;2.33;2.00;;;;;;;;5019607;27;45999;-75
2022/05/29 10:43:57;;;;;;;;;1.00;1.00;;;;;;;;5099967;27;45403;-77
2022/05/29 10:46:25;;;;;;;;;0.33;0.33;;;;;;;;5099842;27;46631;-78
2022/05/29 10:49:10;;;;;;;;;1.00;1.00;;;;;;;;5099778;27;45334;-76
2022/05/29 10:51:54;;;;;;;;;1.00;1.00;;;;;;;;5099740;27;45410;-77
2022/05/29 10:54:19;;;;;;;;;2.00;2.00;;;;;;;;5100049;27;45443;-79
2022/05/29 10:56:47;;;;;;;;;1.00;1.00;;;;;;;;5099311;27;46399;-75
2022/05/29 10:59:31;;;;;;;;;3.00;1.00;;;;;;;;5099389;27;45341;-75
2022/05/29 11:05:06;;;;;;;;;0.33;0.33;;;;;;;;5099913;27;45308;-76
2022/05/29 11:07:37;;;;;;;;;0.67;0.67;;;;;;;;5099293;27;46754;-79
2022/05/29 11:10:21;;;;;;;;;0.00;0.00;;;;;;;;5099673;27;45430;-78
2022/05/29 11:12:52;;;;;;;;;1.00;1.00;;;;;;;;5099246;27;45323;-79
2022/05/29 11:15:33;;;;;;;;;0.00;0.00;;;;;;;;5098893;27;45507;-79
2022/05/29 11:18:25;;;;;;;;;1.00;1.00;;;;;;;;5099161;27;45533;-76
2022/05/29 11:20:50;;;;;;;;;1.00;1.00;;;;;;;;5099110;27;45735;-77
2022/05/29 11:23:21;;;;;;;;;0.00;0.00;;;;;;;;5099412;27;45285;-77
2022/05/29 11:25:49;;;;;;;;;6.00;5.67;;;;;;;;5099530;27;45372;-76
2022/05/29 11:28:14;;;;;;;;;6.00;6.00;;;;;;;;5098987;27;45372;-79
2022/05/29 11:30:54;;;;;;;;;0.00;0.00;;;;;;;;5099005;27;45277;-78
2022/05/29 11:33:42;;;;;;;;;1.00;1.00;;;;;;;;5099562;27;45310;-77
2022/05/29 11:36:26;;;;;;;;;1.00;1.00;;;;;;;;5088182;27;45322;-79
2022/05/29 11:39:09;;;;;;;;;1.33;1.33;;;;;;;;5098958;27;46465;-78
2022/05/29 11:41:37;;;;;;;;;0.00;0.00;;;;;;;;5098961;27;45307;-79
2022/05/29 11:44:02;;;;;;;;;1.00;1.00;;;;;;;;5099003;27;45205;-79
2022/05/29 11:52:31;;;;;;;;;1.00;1.00;;;;;;;;5098778;27;45808;-79
2022/05/29 11:55:03;;;;;;;;;1.00;1.00;;;;;;;;5098641;27;45379;-78
2022/05/29 11:57:36;;;;;;;;;1.00;1.00;;;;;;;;5099198;27;45498;-78
2022/05/29 12:00:19;;;;;;;;;3.33;2.00;;;;;;;;5098136;27;46131;-78
2022/05/29 12:03:02;;;;;;;;;5.00;3.00;;;;;;;;5098305;27;45307;-78
2022/05/29 12:05:27;;;;;;;;;1.00;1.00;;;;;;;;5098744;27;45406;-77
2022/05/29 12:08:10;;;;;;;;;1.00;1.00;;;;;;;;5099005;27;45359;-76
2022/05/29 12:10:59;;;;;;;;;2.00;2.00;;;;;;;;5098731;27;45403;-78
2022/05/29 12:13:27;;;;;;;;;1.67;1.00;;;;;;;;5098490;27;45263;-79
2022/05/29 12:16:02;;;;;;;;;3.00;3.00;;;;;;;;5098407;27;45292;-77
2022/05/29 12:18:36;;;;;;;;;1.67;1.67;;;;;;;;5098777;27;45462;-78
2022/05/29 12:21:02;;;;;;;;;5.67;5.00;;;;;;;;5098311;27;46660;-79
2022/05/29 12:23:31;;;;;;;;;3.00;1.00;;;;;;;;5098221;27;45335;-78
2022/05/29 12:26:01;;;;;;;;;2.67;2.67;;;;;;;;5098140;27;45422;-78
2022/05/29 12:28:45;;;;;;;;;3.00;3.00;;;;;;;;5098553;27;45184;-77
2022/05/29 12:31:23;;;;;;;;;5.33;5.33;;;;;;;;5098155;27;46728;-77
2022/05/29 12:33:49;;;;;;;;;2.33;1.00;;;;;;;;5098028;27;45236;-76
2022/05/29 12:36:17;;;;;;;;;2.33;1.00;;;;;;;;5098267;27;45339;-76
2022/05/29 12:39:03;;;;;;;;;2.33;1.00;;;;;;;;5098282;27;45465;-78
2022/05/29 12:41:47;;;;;;;;;1.33;1.33;;;;;;;;5098111;27;45539;-79
2022/05/29 12:44:36;;;;;;;;;2.00;2.00;;;;;;;;5098129;27;45331;-79
2022/05/29 12:47:04;;;;;;;;;3.33;1.00;;;;;;;;5097221;27;45173;-78
2022/05/29 12:49:38;;;;;;;;;4.00;2.33;;;;;;;;5098224;27;45407;-77
2022/05/29 12:52:06;;;;;;;;;1.00;1.00;;;;;;;;5097761;27;46577;-79
2022/05/29 12:54:31;;;;;;;;;4.33;2.00;;;;;;;;5097957;27;45372;-78
2022/05/29 12:57:12;;;;;;;;;1.00;1.00;;;;;;;;5097843;27;45451;-77
2022/05/29 13:00:06;;;;;;;;;3.00;1.33;;;;;;;;5098003;27;45301;-79
2022/05/29 13:02:50;;;;;;;;;2.00;0.00;;;;;;;;5097536;27;45270;-77
2022/05/29 13:05:21;;;;;;;;;1.00;1.00;;;;;;;;5097746;27;45371;-77
2022/05/29 13:08:08;;;;;;;;;2.00;2.00;;;;;;;;5097786;27;45426;-75
2022/05/29 13:10:35;;;;;;;;;4.00;4.00;;;;;;;;5097804;27;45394;-77
2022/05/29 13:13:06;;;;;;;;;1.33;1.33;;;;;;;;5097620;27;47222;-77
2022/05/29 13:15:34;;;;;;;;;2.33;1.00;;;;;;;;5097211;27;45596;-78
2022/05/29 13:18:02;;;;;;;;;1.00;1.00;;;;;;;;5098106;27;45294;-78
2022/05/29 13:20:27;;;;;;;;;2.00;2.00;;;;;;;;5097855;27;45315;-78
2022/05/29 13:22:55;;;;;;;;;1.00;1.00;;;;;;;;5097162;27;45505;-79
2022/05/29 13:25:22;;;;;;;;;1.00;1.00;;;;;;;;5097500;27;45413;-79
2022/05/29 13:27:48;;;;;;;;;1.33;0.33;;;;;;;;5097262;27;45332;-79
2022/05/29 13:30:36;;;;;;;;;2.00;1.00;;;;;;;;5097471;27;45456;-79
2022/05/29 13:33:20;;;;;;;;;1.00;1.00;;;;;;;;5014312;28;45610;-76
2022/05/29 13:35:45;;;;;;;;;1.00;1.00;;;;;;;;5014265;28;45540;-77
2022/05/29 13:38:30;;;;;;;;;2.00;0.00;;;;;;;;5017315;28;45215;-76
2022/05/29 13:41:02;;;;;;;;;1.00;1.00;;;;;;;;5018158;28;45353;-77
2022/05/29 13:43:30;;;;;;;;;0.00;0.00;;;;;;;;5017371;28;46543;-77
2022/05/29 13:46:04;;;;;;;;;1.00;0.00;;;;;;;;5017810;28;45460;-77
2022/05/29 13:48:30;;;;;;;;;0.00;0.00;;;;;;;;5018245;28;45489;-76
2022/05/29 13:51:12;;;;;;;;;2.67;2.67;;;;;;;;5017815;28;45343;-77
2022/05/29 13:53:50;;;;;;;;;6.33;6.33;;;;;;;;5017186;28;46646;-76
2022/05/29 13:56:18;;;;;;;;;2.00;1.00;;;;;;;;5017297;28;45397;-76
2022/05/29 14:04:58;;;;;;;;;0.00;0.00;;;;;;;;5017687;28;45448;-76
2022/05/29 14:07:32;;;;;;;;;0.00;0.00;;;;;;;;5017121;28;45370;-76
2022/05/29 14:10:27;;;;;;;;;2.00;0.00;;;;;;;;5055959;27;45356;-77
2022/05/29 14:13:05;;;;;;;;;3.00;2.00;;;;;;;;5017527;28;45671;-76
2022/05/29 14:15:51;;;;;;;;;0.67;0.67;;;;;;;;5017090;28;45604;-78
2022/05/29 14:18:22;;;;;;;;;0.00;0.00;;;;;;;;5016970;28;45746;-78
2022/05/29 14:20:47;;;;;;;;;1.00;0.00;;;;;;;;5017259;28;45448;-78
2022/05/29 14:23:20;;;;;;;;;0.00;0.00;;;;;;;;5017342;28;45458;-78
2022/05/29 14:26:01;;;;;;;;;1.00;1.00;;;;;;;;5017088;28;46650;-76
2022/05/29 14:28:38;;;;;;;;;0.67;0.00;;;;;;;;5017218;28;45389;-79
2022/05/29 14:31:03;;;;;;;;;0.00;0.00;;;;;;;;5017009;28;45250;-79
2022/05/29 14:33:34;;;;;;;;;1.00;0.00;;;;;;;;5017627;28;45404;-77
2022/05/29 14:36:14;;;;;;;;;0.00;0.00;;;;;;;;5016777;28;45554;-77
2022/05/29 14:38:48;;;;;;;;;0.33;0.00;;;;;;;;5016966;28;45409;-77
2022/05/29 14:41:34;;;;;;;;;2.00;0.00;;;;;;;;5017050;28;45367;-78
2022/05/29 14:44:32;;;;;;;;;1.00;1.00;;;;;;;;5016574;28;45540;-78
2022/05/29 14:47:05;;;;;;;;;0.33;0.33;;;;;;;;4977024;28;45499;-78
2022/05/29 14:49:41;;;;;;;;;1.67;0.67;;;;;;;;4999432;28;45355;-76
2022/05/29 14:52:18;;;;;;;;;0.33;0.33;;;;;;;;5017165;28;45357;-78
2022/05/29 14:54:54;;;;;;;;;2.00;1.00;;;;;;;;5016865;28;45460;-78
2022/05/29 14:57:26;;;;;;;;;1.00;1.00;;;;;;;;5016545;28;46486;-79
2022/05/29 14:59:52;;;;;;;;;1.00;1.00;;;;;;;;4999824;28;45338;-77
2022/05/29 15:02:20;;;;;;;;;2.00;2.00;;;;;;;;5016665;28;45350;-78
2022/05/29 15:04:46;;;;;;;;;0.00;0.00;;;;;;;;5016989;28;45341;-79
2022/05/29 15:12:42;;;;;;;;;0.00;0.00;;;;;;;;5016789;28;45489;-77
2022/05/29 15:15:16;;;;;;;;;1.33;1.00;;;;;;;;5016390;28;45479;-79
2022/05/29 15:17:41;;;;;;;;;0.00;0.00;;;;;;;;5016204;28;46792;-79
2022/05/29 15:24:08;;;;;;;;;4.00;1.67;;;;;;;;5016488;28;45235;-79
2022/05/29 15:25:37;;;;;;;;;1.00;1.00;;;;;;;;5099619;27;45269;-77
2022/05/29 15:28:05;;;;;;;;;4.00;4.00;;;;;;;;5098982;27;45686;-77
2022/05/29 15:30:31;;;;;;;;;1.00;1.00;;;;;;;;5099300;27;45484;-79
2022/05/29 15:33:03;;;;;;;;;3.00;1.00;;;;;;;;5099055;27;45610;-79
2022/05/29 15:35:32;;;;;;;;;1.00;1.00;;;;;;;;5099360;27;45468;-78
2022/05/29 15:37:58;;;;;;;;;1.33;0.00;;;;;;;;5099030;27;46172;-78
2022/05/29 15:40:39;;;;;;;;;2.00;1.00;;;;;;;;5080234;27;45313;-77
2022/05/29 15:43:07;;;;;;;;;1.00;0.00;;;;;;;;5099017;27;45419;-79
2022/05/29 15:45:32;;;;;;;;;1.00;1.00;;;;;;;;5099194;27;45390;-78
2022/05/29 15:48:12;;;;;;;;;0.00;0.00;;;;;;;;5098783;27;45622;-79
2022/05/29 15:50:38;;;;;;;;;0.00;0.00;;;;;;;;5098726;27;45264;-79
2022/05/29 15:53:03;;;;;;;;;5.67;3.67;;;;;;;;5098923;27;45304;-79